createdAt,value
2019-01-13T00:00:03.238Z,98.2
2019-01-13T00:01:03.462Z,98.2
2019-01-13T00:02:03.438Z,99.1
2019-01-13T00:03:03.203Z,99.1
2019-01-13T00:04:02.989Z,100.5
2019-01-13T00:05:03.348Z,100.5
2019-01-13T00:06:02.779Z,101.5
2019-01-13T00:07:03.479Z,101.2
2019-01-13T00:08:02.801Z,100.8
2019-01-13T00:09:02.930Z,101.9
2019-01-13T00:10:04.278Z,98.2
2019-01-13T00:11:03.088Z,100.1
2019-01-13T00:12:03.606Z,100.3
2019-01-13T00:13:03.111Z,98.7
2019-01-13T00:14:03.465Z,99.4
2019-01-13T00:15:03.479Z,98.9
2019-01-13T00:16:03.308Z,98.2
2019-01-13T00:17:03.276Z,98
2019-01-13T00:18:02.809Z,98
2019-01-13T00:19:03.458Z,97
2019-01-13T00:20:02.792Z,98.2
2019-01-13T00:21:03.363Z,96.8
2019-01-13T00:22:02.750Z,98.2
2019-01-13T00:23:03.778Z,97.3
2019-01-13T00:24:03.688Z,97.5
2019-01-13T00:25:02.736Z,98
2019-01-13T00:26:03.730Z,98
2019-01-13T00:27:03.316Z,98.2
2019-01-13T00:28:02.846Z,97.7
2019-01-13T00:29:02.996Z,99.1
2019-01-13T00:30:01.693Z,98.4
2019-01-13T00:31:03.631Z,98.4
2019-01-13T00:32:02.647Z,99.1
2019-01-13T00:33:03.531Z,98.7
2019-01-13T00:34:03.044Z,98.2
2019-01-13T00:35:03.642Z,98
2019-01-13T00:36:02.741Z,97.3
2019-01-13T00:37:02.977Z,96.3
2019-01-13T00:38:03.140Z,95.9
2019-01-13T00:39:03.155Z,95.9
2019-01-13T00:40:03.255Z,95.6
2019-01-13T00:41:02.603Z,94.9
2019-01-13T00:42:02.937Z,94.9
2019-01-13T00:43:03.659Z,96.3
2019-01-13T00:44:03.263Z,96.1
2019-01-13T00:45:02.914Z,97.5
2019-01-13T00:46:03.521Z,97
2019-01-13T00:47:03.382Z,96.6
2019-01-13T00:48:03.217Z,96.6
2019-01-13T00:49:02.800Z,95.2
2019-01-13T00:50:02.991Z,94.2
2019-01-13T00:51:03.007Z,94.2
2019-01-13T00:52:02.993Z,93.1
2019-01-13T00:53:03.091Z,92.8
2019-01-13T00:54:03.032Z,92.8
2019-01-13T00:55:02.885Z,91.9
2019-01-13T00:56:02.764Z,91.9
2019-01-13T00:57:03.062Z,92.1
2019-01-13T00:58:03.597Z,92.1
2019-01-13T00:59:03.370Z,92.8
2019-01-13T01:00:03.729Z,92.1
2019-01-13T01:01:02.889Z,92.8
2019-01-13T01:02:02.774Z,93.8
2019-01-13T01:03:03.502Z,93.8
2019-01-13T01:04:03.615Z,94.5
2019-01-13T01:05:03.420Z,95.2
2019-01-13T01:06:02.960Z,93.8
2019-01-13T01:07:03.270Z,93.8
2019-01-13T01:08:03.513Z,92.6
2019-01-13T01:09:03.336Z,90.7
2019-01-13T01:10:03.404Z,90.7
2019-01-13T01:11:03.274Z,91.4
2019-01-13T01:12:02.634Z,91.2
2019-01-13T01:13:03.437Z,91.4
2019-01-13T01:14:03.292Z,92.1
2019-01-13T01:15:02.778Z,92.1
2019-01-13T01:16:03.057Z,92.1
2019-01-13T01:17:03.369Z,92.4
2019-01-13T01:18:04.255Z,92.1
2019-01-13T01:19:03.564Z,93.5
2019-01-13T01:20:03.344Z,93.5
2019-01-13T01:21:03.546Z,94.7
2019-01-13T01:22:02.767Z,94.7
2019-01-13T01:23:03.063Z,94.7
2019-01-13T01:24:03.556Z,94.2
2019-01-13T01:25:03.491Z,94.5
2019-01-13T01:26:02.814Z,94.5
2019-01-13T01:27:02.936Z,93.8
2019-01-13T01:28:03.085Z,94.5
2019-01-13T01:29:03.343Z,93.8
2019-01-13T01:30:03.488Z,94.2
2019-01-13T01:31:03.402Z,95.4
2019-01-13T01:32:03.651Z,96.6
2019-01-13T01:33:02.806Z,97
2019-01-13T01:34:03.314Z,97
2019-01-13T01:35:03.391Z,98.7
2019-01-13T01:36:02.793Z,98
2019-01-13T01:37:03.503Z,97.5
2019-01-13T01:38:03.116Z,98.4
2019-01-13T01:39:03.089Z,98.7
2019-01-13T01:40:03.607Z,97
2019-01-13T01:41:03.584Z,96.1
2019-01-13T01:42:03.138Z,95.4
2019-01-13T01:43:03.249Z,94.5
2019-01-13T01:44:02.918Z,95.6
2019-01-13T01:45:03.017Z,93.1
2019-01-13T01:46:03.321Z,94.2
2019-01-13T01:47:03.918Z,95.2
2019-01-13T01:48:03.387Z,94.9
2019-01-13T01:49:02.485Z,95.2
2019-01-13T01:50:03.678Z,94
2019-01-13T01:51:02.972Z,93.5
2019-01-13T01:52:03.537Z,95.4
2019-01-13T01:53:03.464Z,95.9
2019-01-13T01:54:03.303Z,95.9
2019-01-13T01:55:03.288Z,95.2
2019-01-13T01:56:03.200Z,95.2
2019-01-13T01:57:03.485Z,94.9
2019-01-13T01:58:02.648Z,94.9
2019-01-13T01:59:03.485Z,95.2
2019-01-13T02:00:03.069Z,94
2019-01-13T02:01:02.766Z,92.8
2019-01-13T02:02:03.196Z,92.8
2019-01-13T02:03:03.216Z,92.1
2019-01-13T02:04:02.908Z,91.9
2019-01-13T02:05:03.553Z,91.9
2019-01-13T02:06:03.428Z,92.6
2019-01-13T02:07:03.072Z,94
2019-01-13T02:08:04.071Z,94.7
2019-01-13T02:09:03.031Z,95.4
2019-01-13T02:10:03.344Z,96.8
2019-01-13T02:11:03.400Z,97.5
2019-01-13T02:12:02.882Z,97.3
2019-01-13T02:13:03.028Z,98
2019-01-13T02:14:03.175Z,96.1
2019-01-13T02:15:03.004Z,97.3
2019-01-13T02:16:03.606Z,97.3
2019-01-13T02:17:03.440Z,98.2
2019-01-13T02:18:03.393Z,98.2
2019-01-13T02:19:02.983Z,97
2019-01-13T02:20:03.214Z,95.6
2019-01-13T02:21:03.789Z,94.9
2019-01-13T02:22:02.886Z,94.9
2019-01-13T02:23:03.718Z,94.9
2019-01-13T02:24:02.013Z,96.6
2019-01-13T02:25:03.612Z,96.6
2019-01-13T02:26:02.786Z,96.6
2019-01-13T02:27:02.964Z,98
2019-01-13T02:28:02.902Z,97.7
2019-01-13T02:29:03.026Z,97.7
2019-01-13T02:30:03.303Z,98.9
2019-01-13T02:31:03.778Z,98
2019-01-13T02:32:02.973Z,98
2019-01-13T02:33:03.353Z,97
2019-01-13T02:34:03.309Z,98.2
2019-01-13T02:35:03.150Z,96.1
2019-01-13T02:36:03.714Z,95.4
2019-01-13T02:37:03.275Z,94.9
2019-01-13T02:38:02.927Z,94.2
2019-01-13T02:39:03.217Z,94.2
2019-01-13T02:40:02.916Z,95.6
2019-01-13T02:41:03.710Z,96.6
2019-01-13T02:42:03.143Z,97.3
2019-01-13T02:43:02.975Z,97
2019-01-13T02:44:03.125Z,95.6
2019-01-13T02:45:03.283Z,96.1
2019-01-13T02:46:02.635Z,95.4
2019-01-13T02:47:03.827Z,95.2
2019-01-13T02:48:03.603Z,95.9
2019-01-13T02:49:02.883Z,96.3
2019-01-13T02:50:02.710Z,98.4
2019-01-13T02:51:02.915Z,98.9
2019-01-13T02:52:03.612Z,98.4
2019-01-13T02:53:03.472Z,98.4
2019-01-13T02:54:02.854Z,99.1
2019-01-13T02:55:03.256Z,99.4
2019-01-13T02:56:03.476Z,98.9
2019-01-13T02:57:03.725Z,99.4
2019-01-13T02:58:02.758Z,99.6
2019-01-13T02:59:02.843Z,100.1
2019-01-13T03:00:03.102Z,100.5
2019-01-13T03:01:03.162Z,100.5
2019-01-13T03:02:03.144Z,100.3
2019-01-13T03:03:03.507Z,100.3
2019-01-13T03:04:03.303Z,100.8
2019-01-13T03:05:03.457Z,99.8
2019-01-13T03:06:03.032Z,98.9
2019-01-13T03:07:03.250Z,98.4
2019-01-13T03:08:02.871Z,98.4
2019-01-13T03:09:03.298Z,98
2019-01-13T03:10:03.258Z,98
2019-01-13T03:11:02.819Z,96.3
2019-01-13T03:12:02.925Z,95.9
2019-01-13T03:13:03.562Z,95.9
2019-01-13T03:14:03.524Z,96.8
2019-01-13T03:15:03.561Z,96.8
2019-01-13T03:16:02.356Z,97.3
2019-01-13T03:17:02.739Z,97.3
2019-01-13T03:18:03.350Z,97
2019-01-13T03:19:02.691Z,97.5
2019-01-13T03:20:03.087Z,98.2
2019-01-13T03:21:03.361Z,97.3
2019-01-13T03:22:03.671Z,96.8
2019-01-13T03:23:03.136Z,96.8
2019-01-13T03:24:03.503Z,94.5
2019-01-13T03:25:03.402Z,94.5
2019-01-13T03:26:03.765Z,92.8
2019-01-13T03:27:03.106Z,93.8
2019-01-13T03:28:02.542Z,93.1
2019-01-13T03:29:03.035Z,93.1
2019-01-13T03:30:03.140Z,91.9
2019-01-13T03:31:13.115Z,91.9
2019-01-13T03:32:03.821Z,91.7
2019-01-13T03:33:03.850Z,92.8
2019-01-13T03:34:02.810Z,91.7
2019-01-13T03:35:03.067Z,91.7
2019-01-13T03:36:03.074Z,93.1
2019-01-13T03:37:03.029Z,93.1
2019-01-13T03:38:02.740Z,93.1
2019-01-13T03:39:02.699Z,91.9
2019-01-13T03:40:02.844Z,91.9
2019-01-13T03:41:03.459Z,89.8
2019-01-13T03:42:03.621Z,89.8
2019-01-13T03:43:03.304Z,90.3
2019-01-13T03:44:03.052Z,91.9
2019-01-13T03:45:03.433Z,92.4
2019-01-13T03:46:02.919Z,92.8
2019-01-13T03:47:03.350Z,91.4
2019-01-13T03:48:03.279Z,92.1
2019-01-13T03:49:03.507Z,91.2
2019-01-13T03:50:03.199Z,91.2
2019-01-13T03:51:03.285Z,89.8
2019-01-13T03:52:03.143Z,88.4
2019-01-13T03:53:02.786Z,88.4
2019-01-13T03:54:03.440Z,88.4
2019-01-13T03:55:03.370Z,87
2019-01-13T03:56:02.903Z,87.9
2019-01-13T03:57:03.591Z,87.7
2019-01-13T03:58:03.308Z,88.4
2019-01-13T03:59:02.988Z,88.4
2019-01-13T04:00:03.518Z,87.9
2019-01-13T04:01:02.898Z,87.2
2019-01-13T04:02:02.908Z,87.2
2019-01-13T04:03:02.981Z,88.4
2019-01-13T04:04:03.477Z,88.9
2019-01-13T04:05:03.124Z,88.6
2019-01-13T04:06:03.568Z,90.3
2019-01-13T04:07:03.621Z,89.6
2019-01-13T04:08:03.301Z,89.3
2019-01-13T04:09:03.115Z,91
2019-01-13T04:10:03.650Z,91.4
2019-01-13T04:11:03.166Z,91.7
2019-01-13T04:12:03.603Z,91.7
2019-01-13T04:13:02.962Z,92.6
2019-01-13T04:14:03.206Z,92.4
2019-01-13T04:15:03.775Z,91
2019-01-13T04:16:03.222Z,90.3
2019-01-13T04:17:03.247Z,91
2019-01-13T04:18:03.013Z,91
2019-01-13T04:19:02.657Z,91
2019-01-13T04:20:03.641Z,91
2019-01-13T04:21:02.664Z,91.7
2019-01-13T04:22:03.511Z,91.4
2019-01-13T04:23:02.615Z,91.7
2019-01-13T04:24:03.374Z,91.7
2019-01-13T04:25:02.761Z,91.9
2019-01-13T04:26:03.448Z,91.2
2019-01-13T04:27:03.380Z,90
2019-01-13T04:28:03.145Z,90
2019-01-13T04:29:03.170Z,90.7
2019-01-13T04:30:03.429Z,91.4
2019-01-13T04:31:02.739Z,91.4
2019-01-13T04:32:03.605Z,91.9
2019-01-13T04:33:02.919Z,91.9
2019-01-13T04:34:02.986Z,89.8
2019-01-13T04:35:03.576Z,91
2019-01-13T04:36:03.634Z,91
2019-01-13T04:37:03.129Z,91.4
2019-01-13T04:38:02.759Z,92.8
2019-01-13T04:39:03.148Z,93.3
2019-01-13T04:40:03.162Z,94
2019-01-13T04:41:03.327Z,94
2019-01-13T04:42:03.521Z,93.5
2019-01-13T04:43:02.848Z,94
2019-01-13T04:44:02.792Z,93.1
2019-01-13T04:45:02.916Z,92.8
2019-01-13T04:46:03.015Z,92.8
2019-01-13T04:47:03.493Z,92.8
2019-01-13T04:48:03.537Z,93.5
2019-01-13T04:49:03.006Z,93.5
2019-01-13T04:50:03.070Z,93.1
2019-01-13T04:51:03.376Z,93.1
2019-01-13T04:52:03.338Z,94.2
2019-01-13T04:53:02.944Z,94.9
2019-01-13T04:54:03.056Z,94.9
2019-01-13T04:55:02.979Z,96.1
2019-01-13T04:56:03.567Z,95.6
2019-01-13T04:57:03.317Z,95.6
2019-01-13T04:58:02.952Z,95.6
2019-01-13T04:59:02.770Z,93.5
2019-01-13T05:00:03.250Z,94.2
2019-01-13T05:01:02.835Z,94.2
2019-01-13T05:02:03.401Z,95.4
2019-01-13T05:03:03.250Z,96.1
2019-01-13T05:04:02.850Z,96.6
2019-01-13T05:05:03.328Z,97
2019-01-13T05:06:03.694Z,97
2019-01-13T05:07:03.141Z,97.3
2019-01-13T05:08:03.552Z,96.6
2019-01-13T05:09:02.903Z,96.8
2019-01-13T05:10:03.788Z,96.6
2019-01-13T05:11:03.167Z,95.4
2019-01-13T05:12:03.499Z,95.9
2019-01-13T05:13:02.562Z,95.9
2019-01-13T05:14:02.996Z,95.9
2019-01-13T05:15:03.363Z,96.1
2019-01-13T05:16:02.796Z,97
2019-01-13T05:17:02.679Z,96.8
2019-01-13T05:18:02.917Z,96.8
2019-01-13T05:19:03.726Z,95.6
2019-01-13T05:20:03.292Z,95.4
2019-01-13T05:21:03.059Z,96.1
2019-01-13T05:22:03.159Z,96.1
2019-01-13T05:23:03.277Z,97
2019-01-13T05:24:02.636Z,96.3
2019-01-13T05:25:03.679Z,96.1
2019-01-13T05:26:03.730Z,97.3
2019-01-13T05:27:03.606Z,97.7
2019-01-13T05:28:03.472Z,97.7
2019-01-13T05:29:03.537Z,96.8
2019-01-13T05:30:02.854Z,97
2019-01-13T05:31:03.681Z,97
2019-01-13T05:32:03.416Z,97
2019-01-13T05:33:02.782Z,99.1
2019-01-13T05:34:02.783Z,98.7
2019-01-13T05:35:03.540Z,98.7
2019-01-13T05:36:02.781Z,96.1
2019-01-13T05:37:03.632Z,94.7
2019-01-13T05:38:02.754Z,94.7
2019-01-13T05:39:02.969Z,94.5
2019-01-13T05:40:03.280Z,95.9
2019-01-13T05:41:02.942Z,94.2
2019-01-13T05:42:03.140Z,94.5
2019-01-13T05:43:03.570Z,94.9
2019-01-13T05:44:02.845Z,92.8
2019-01-13T05:45:03.630Z,92.6
2019-01-13T05:46:02.993Z,92.8
2019-01-13T05:47:03.457Z,92.4
2019-01-13T05:48:02.722Z,94
2019-01-13T05:49:03.492Z,93.8
2019-01-13T05:50:03.299Z,92.6
2019-01-13T05:51:03.171Z,94.7
2019-01-13T05:52:02.926Z,94
2019-01-13T05:53:02.711Z,93.3
2019-01-13T05:54:02.767Z,92.1
2019-01-13T05:55:03.557Z,92.1
2019-01-13T05:56:03.183Z,92.8
2019-01-13T05:57:03.183Z,93.1
2019-01-13T05:58:03.529Z,93.3
2019-01-13T05:59:02.778Z,93.1
2019-01-13T06:00:03.244Z,94
2019-01-13T06:01:03.620Z,94.7
2019-01-13T06:02:03.254Z,92.8
2019-01-13T06:03:02.694Z,94.5
2019-01-13T06:04:03.379Z,92.8
2019-01-13T06:05:03.774Z,92.6
2019-01-13T06:06:03.406Z,91.4
2019-01-13T06:07:02.922Z,90
2019-01-13T06:08:03.673Z,89.8
2019-01-13T06:09:03.195Z,90.5
2019-01-13T06:10:02.995Z,90
2019-01-13T06:11:03.359Z,89.6
2019-01-13T06:12:03.625Z,92.1
2019-01-13T06:13:03.614Z,91.9
2019-01-13T06:14:02.957Z,92.4
2019-01-13T06:15:03.034Z,93.1
2019-01-13T06:16:03.511Z,91.9
2019-01-13T06:17:02.696Z,91
2019-01-13T06:18:03.393Z,91.4
2019-01-13T06:19:03.083Z,89.6
2019-01-13T06:20:03.414Z,89.6
2019-01-13T06:21:02.927Z,91.4
2019-01-13T06:22:03.426Z,89.6
2019-01-13T06:23:03.412Z,88.6
2019-01-13T06:24:03.073Z,89.3
2019-01-13T06:25:03.048Z,90.3
2019-01-13T06:26:03.184Z,90.3
2019-01-13T06:27:02.953Z,90.5
2019-01-13T06:28:03.021Z,90.3
2019-01-13T06:29:02.884Z,90.7
2019-01-13T06:30:03.206Z,90.5
2019-01-13T06:31:03.046Z,90
2019-01-13T06:32:03.097Z,89.1
2019-01-13T06:33:02.989Z,90
2019-01-13T06:34:03.040Z,87.7
2019-01-13T06:35:02.730Z,88.4
2019-01-13T06:36:03.544Z,89.8
2019-01-13T06:37:03.250Z,91.2
2019-01-13T06:38:03.970Z,91.2
2019-01-13T06:39:03.411Z,90
2019-01-13T06:40:03.255Z,90.7
2019-01-13T06:41:03.242Z,90.5
2019-01-13T06:42:03.066Z,91.9
2019-01-13T06:43:03.328Z,91.2
2019-01-13T06:44:03.223Z,92.4
2019-01-13T06:45:03.264Z,93.8
2019-01-13T06:46:02.757Z,93.8
2019-01-13T06:47:02.857Z,94.2
2019-01-13T06:48:03.602Z,94.2
2019-01-13T06:49:02.803Z,94.2
2019-01-13T06:50:03.273Z,91.7
2019-01-13T06:51:02.920Z,91.4
2019-01-13T06:52:02.971Z,91.2
2019-01-13T06:53:03.717Z,91
2019-01-13T06:54:02.803Z,91
2019-01-13T06:55:03.100Z,90.3
2019-01-13T06:56:03.062Z,90.5
2019-01-13T06:57:03.222Z,90
2019-01-13T06:58:03.019Z,91
2019-01-13T06:59:02.998Z,89.8
2019-01-13T07:00:03.539Z,91.7
2019-01-13T07:01:03.147Z,91.9
2019-01-13T07:02:03.774Z,90.7
2019-01-13T07:03:03.089Z,89.8
2019-01-13T07:04:02.839Z,89.3
2019-01-13T07:05:03.572Z,90.5
2019-01-13T07:06:03.400Z,91.2
2019-01-13T07:07:02.723Z,91.9
2019-01-13T07:08:03.264Z,91.2
2019-01-13T07:09:02.692Z,91.9
2019-01-13T07:10:02.981Z,93.3
2019-01-13T07:11:03.127Z,90.3
2019-01-13T07:12:03.090Z,91.4
2019-01-13T07:13:02.942Z,89.8
2019-01-13T07:14:03.468Z,89.8
2019-01-13T07:15:03.767Z,91.4
2019-01-13T07:16:03.653Z,91.4
2019-01-13T07:17:03.449Z,91.4
2019-01-13T07:18:03.514Z,92.8
2019-01-13T07:19:03.900Z,93.3
2019-01-13T07:20:03.764Z,92.8
2019-01-13T07:21:02.741Z,92.8
2019-01-13T07:22:03.450Z,93.5
2019-01-13T07:23:02.671Z,94
2019-01-13T07:24:03.523Z,92.6
2019-01-13T07:25:03.450Z,95.2
2019-01-13T07:26:02.556Z,92.8
2019-01-13T07:27:03.675Z,93.8
2019-01-13T07:28:02.849Z,90.7
2019-01-13T07:29:03.575Z,91.9
2019-01-13T07:30:02.966Z,94.2
2019-01-13T07:31:03.270Z,91.4
2019-01-13T07:32:03.110Z,94
2019-01-13T07:33:02.961Z,95.2
2019-01-13T07:34:03.683Z,94.7
2019-01-13T07:35:03.173Z,96.8
2019-01-13T07:36:01.770Z,95.2
2019-01-13T07:37:02.824Z,97
2019-01-13T07:38:03.091Z,96.6
2019-01-13T07:39:03.657Z,95.6
2019-01-13T07:40:02.951Z,95.9
2019-01-13T07:41:03.691Z,96.1
2019-01-13T07:42:02.635Z,97.5
2019-01-13T07:43:03.471Z,95.9
2019-01-13T07:44:03.672Z,97.7
2019-01-13T07:45:02.996Z,97.3
2019-01-13T07:46:03.573Z,97.7
2019-01-13T07:47:03.485Z,97
2019-01-13T07:48:03.166Z,98
2019-01-13T07:49:03.373Z,97.7
2019-01-13T07:50:03.529Z,98.2
2019-01-13T07:51:03.018Z,98.4
2019-01-13T07:52:02.991Z,101.5
2019-01-13T07:53:02.790Z,99.1
2019-01-13T07:54:03.837Z,99.4
2019-01-13T07:55:02.872Z,98
2019-01-13T07:56:02.935Z,98
2019-01-13T07:57:02.721Z,98
2019-01-13T07:58:03.943Z,97.7
2019-01-13T07:59:02.858Z,97
2019-01-13T08:00:03.129Z,95.9
2019-01-13T08:01:03.813Z,96.8
2019-01-13T08:02:03.132Z,95.9
2019-01-13T08:03:02.803Z,98.2
2019-01-13T08:04:03.238Z,96.8
2019-01-13T08:05:03.354Z,97.3
2019-01-13T08:06:02.790Z,98.7
2019-01-13T08:07:03.522Z,97.5
2019-01-13T08:08:03.266Z,98.4
2019-01-13T08:09:03.015Z,99.1
2019-01-13T08:10:03.531Z,99.4
2019-01-13T08:11:03.570Z,98.7
2019-01-13T08:12:03.144Z,97.7
2019-01-13T08:13:03.455Z,97.5
2019-01-13T08:14:03.328Z,96.6
2019-01-13T08:15:03.387Z,97.7
2019-01-13T08:16:02.972Z,95.9
2019-01-13T08:17:02.821Z,96.3
2019-01-13T08:18:02.824Z,95.9
2019-01-13T08:19:02.942Z,94
2019-01-13T08:20:03.095Z,94.9
2019-01-13T08:21:03.124Z,95.2
2019-01-13T08:22:03.462Z,95.9
2019-01-13T08:23:02.221Z,94.9
2019-01-13T08:24:03.248Z,95.6
2019-01-13T08:25:03.498Z,96.3
2019-01-13T08:26:03.277Z,95.2
2019-01-13T08:27:03.342Z,96.3
2019-01-13T08:28:02.852Z,94.9
2019-01-13T08:29:03.081Z,95.6
2019-01-13T08:30:03.757Z,96.6
2019-01-13T08:31:03.466Z,94.7
2019-01-13T08:32:02.919Z,94.9
2019-01-13T08:33:03.516Z,94.5
2019-01-13T08:34:03.274Z,91.9
2019-01-13T08:35:02.907Z,93.1
2019-01-13T08:36:02.818Z,92.4
2019-01-13T08:37:03.641Z,91.9
2019-01-13T08:38:02.789Z,94
2019-01-13T08:39:02.927Z,92.4
2019-01-13T08:40:03.910Z,93.5
2019-01-13T08:41:02.938Z,92.8
2019-01-13T08:42:03.612Z,93.5
2019-01-13T08:43:03.242Z,92.1
2019-01-13T08:44:03.505Z,92.6
2019-01-13T08:45:03.331Z,91
2019-01-13T08:46:02.818Z,91.2
2019-01-13T08:47:03.667Z,91.2
2019-01-13T08:48:02.943Z,89.1
2019-01-13T08:49:03.018Z,88.9
2019-01-13T08:50:03.716Z,88.9
2019-01-13T08:51:03.155Z,88.2
2019-01-13T08:52:02.938Z,89.1
2019-01-13T08:53:03.473Z,87.7
2019-01-13T08:54:03.612Z,89.6
2019-01-13T08:55:03.734Z,91.4
2019-01-13T08:56:03.220Z,88.9
2019-01-13T08:57:03.068Z,91.4
2019-01-13T08:58:03.745Z,91.2
2019-01-13T08:59:02.849Z,91.2
2019-01-13T09:00:02.798Z,90.5
2019-01-13T09:01:03.568Z,90.5
2019-01-13T09:02:03.444Z,89.3
2019-01-13T09:03:02.769Z,89.8
2019-01-13T09:04:03.440Z,88.2
2019-01-13T09:05:03.093Z,86.5
2019-01-13T09:06:02.701Z,87.5
2019-01-13T09:07:03.314Z,88.4
2019-01-13T09:08:03.233Z,86.5
2019-01-13T09:09:03.596Z,87.5
2019-01-13T09:10:03.093Z,87.2
2019-01-13T09:11:03.395Z,87.2
2019-01-13T09:12:02.957Z,86.8
2019-01-13T09:13:02.837Z,87
2019-01-13T09:14:03.299Z,87.7
2019-01-13T09:15:03.349Z,87.7
2019-01-13T09:16:03.222Z,87.9
2019-01-13T09:17:03.573Z,88.2
2019-01-13T09:18:03.581Z,89.1
2019-01-13T09:19:03.056Z,87.2
2019-01-13T09:20:03.117Z,87.5
2019-01-13T09:21:02.878Z,87.5
2019-01-13T09:22:03.197Z,88.2
2019-01-13T09:23:03.130Z,86.1
2019-01-13T09:24:02.913Z,88.6
2019-01-13T09:25:03.661Z,88.6
2019-01-13T09:26:02.897Z,88.6
2019-01-13T09:27:02.968Z,89.3
2019-01-13T09:28:03.961Z,88.2
2019-01-13T09:29:02.733Z,88.2
2019-01-13T09:30:02.981Z,87.7
2019-01-13T09:31:02.911Z,88.4
2019-01-13T09:32:03.050Z,88.2
2019-01-13T09:33:03.102Z,90.5
2019-01-13T09:34:03.402Z,87.5
2019-01-13T09:35:03.595Z,90.5
2019-01-13T09:36:03.018Z,88.9
2019-01-13T09:37:03.095Z,90
2019-01-13T09:38:02.967Z,86.8
2019-01-13T09:39:03.290Z,88.9
2019-01-13T09:40:03.186Z,90.3
2019-01-13T09:41:03.222Z,91
2019-01-13T09:42:02.906Z,92.6
2019-01-13T09:43:03.151Z,92.6
2019-01-13T09:44:03.315Z,94.7
2019-01-13T09:45:02.785Z,93.3
2019-01-13T09:46:02.756Z,97
2019-01-13T09:47:02.703Z,96.1
2019-01-13T09:48:03.588Z,95.2
2019-01-13T09:49:03.270Z,94.9
2019-01-13T09:50:03.461Z,94.9
2019-01-13T09:51:03.810Z,93.8
2019-01-13T09:52:03.203Z,94.9
2019-01-13T09:53:03.721Z,94.9
2019-01-13T09:54:02.961Z,94.9
2019-01-13T09:55:02.917Z,96.1
2019-01-13T09:56:03.400Z,94.5
2019-01-13T09:57:02.926Z,93.8
2019-01-13T09:58:02.980Z,94.5
2019-01-13T09:59:03.137Z,95.2
2019-01-13T10:00:02.810Z,95.9
2019-01-13T10:01:03.234Z,97
2019-01-13T10:02:02.858Z,94.7
2019-01-13T10:03:03.350Z,96.8
2019-01-13T10:04:03.655Z,96.6
2019-01-13T10:05:03.467Z,96.1
2019-01-13T10:06:03.214Z,97.3
2019-01-13T10:07:03.434Z,96.6
2019-01-13T10:08:02.782Z,96.3
2019-01-13T10:09:02.932Z,95.9
2019-01-13T10:10:03.478Z,96.6
2019-01-13T10:11:02.874Z,97.7
2019-01-13T10:12:03.171Z,97
2019-01-13T10:13:03.635Z,96.6
2019-01-13T10:14:02.811Z,100.3
2019-01-13T10:15:02.800Z,98.4
2019-01-13T10:16:03.620Z,99.1
2019-01-13T10:17:03.073Z,100.5
2019-01-13T10:18:03.433Z,100.3
2019-01-13T10:19:03.147Z,100.5
2019-01-13T10:20:03.652Z,101
2019-01-13T10:21:03.103Z,99.8
2019-01-13T10:22:02.890Z,100.8
2019-01-13T10:23:03.455Z,100.1
2019-01-13T10:24:03.636Z,100.5
2019-01-13T10:25:03.400Z,100.1
2019-01-13T10:26:02.838Z,98.9
2019-01-13T10:27:03.298Z,100.1
2019-01-13T10:28:03.524Z,97.7
2019-01-13T10:29:03.234Z,98.4
2019-01-13T10:30:02.910Z,97.7
2019-01-13T10:31:03.763Z,98.9
2019-01-13T10:32:02.964Z,97
2019-01-13T10:33:03.225Z,97.7
2019-01-13T10:34:03.355Z,95.9
2019-01-13T10:35:03.036Z,96.1
2019-01-13T10:36:03.693Z,95.9
2019-01-13T10:37:03.475Z,96.1
2019-01-13T10:38:03.594Z,96.1
2019-01-13T10:39:02.596Z,96.1
2019-01-13T10:40:03.668Z,96.3
2019-01-13T10:41:03.312Z,96.3
2019-01-13T10:42:03.496Z,94.7
2019-01-13T10:43:02.997Z,94
2019-01-13T10:44:02.926Z,93.5
2019-01-13T10:45:03.345Z,92.6
2019-01-13T10:46:03.328Z,93.3
2019-01-13T10:47:03.437Z,93.1
2019-01-13T10:48:02.890Z,93.5
2019-01-13T10:49:03.142Z,93.5
2019-01-13T10:50:03.002Z,94.7
2019-01-13T10:51:03.672Z,94.2
2019-01-13T10:52:02.821Z,94.7
2019-01-13T10:53:02.795Z,95.6
2019-01-13T10:54:09.737Z,93.8
2019-01-13T10:55:03.417Z,94
2019-01-13T10:56:03.641Z,94.5
2019-01-13T10:57:02.742Z,93.3
2019-01-13T10:58:03.041Z,93.1
2019-01-13T10:59:03.462Z,93.3
2019-01-13T11:00:03.071Z,93.5
2019-01-13T11:01:03.407Z,93.3
2019-01-13T11:02:03.195Z,93.3
2019-01-13T11:03:03.651Z,93.1
2019-01-13T11:04:01.914Z,93.1
2019-01-13T11:05:03.094Z,93.5
2019-01-13T11:06:03.599Z,93.1
2019-01-13T11:07:02.749Z,93.1
2019-01-13T11:08:02.322Z,93.3
2019-01-13T11:09:03.485Z,91.7
2019-01-13T11:10:03.511Z,91
2019-01-13T11:11:03.388Z,93.1
2019-01-13T11:12:03.687Z,91
2019-01-13T11:13:03.568Z,91.9
2019-01-13T11:14:03.192Z,93.8
2019-01-13T11:15:03.425Z,90.7
2019-01-13T11:16:03.331Z,91.4
2019-01-13T11:17:01.918Z,92.1
2019-01-13T11:18:02.803Z,91.9
2019-01-13T11:19:03.474Z,91.7
2019-01-13T11:20:03.200Z,91.2
2019-01-13T11:21:03.357Z,92.6
2019-01-13T11:22:03.630Z,92.6
2019-01-13T11:23:02.967Z,94.2
2019-01-13T11:24:02.848Z,94.9
2019-01-13T11:25:03.802Z,93.3
2019-01-13T11:26:03.776Z,91.7
2019-01-13T11:27:03.422Z,93.8
2019-01-13T11:28:03.260Z,92.8
2019-01-13T11:29:04.003Z,92.8
2019-01-13T11:30:03.605Z,92.6
2019-01-13T11:31:03.303Z,96.1
2019-01-13T11:32:02.696Z,94.5
2019-01-13T11:33:10.128Z,95.4
2019-01-13T11:34:03.269Z,94.2
2019-01-13T11:35:03.016Z,95.2
2019-01-13T11:36:03.378Z,96.1
2019-01-13T11:37:03.385Z,96.6
2019-01-13T11:38:03.175Z,95.4
2019-01-13T11:39:03.645Z,96.8
2019-01-13T11:40:02.963Z,96.8
2019-01-13T11:41:03.041Z,94.2
2019-01-13T11:42:03.233Z,95.6
2019-01-13T11:43:03.375Z,93.5
2019-01-13T11:44:02.917Z,92.6
2019-01-13T11:45:03.127Z,91.7
2019-01-13T11:46:02.859Z,91.2
2019-01-13T11:47:03.762Z,91.2
2019-01-13T11:48:03.528Z,91.7
2019-01-13T11:49:03.649Z,91.9
2019-01-13T11:50:02.852Z,94.2
2019-01-13T11:51:03.997Z,93.5
2019-01-13T11:52:02.853Z,95.4
2019-01-13T11:53:03.724Z,94.5
2019-01-13T11:54:03.419Z,95.6
2019-01-13T11:55:03.255Z,95.4
2019-01-13T11:56:03.384Z,95.6
2019-01-13T11:57:03.196Z,97.7
2019-01-13T11:58:03.217Z,97
2019-01-13T11:59:03.689Z,97.5
2019-01-13T12:00:03.054Z,97.3
2019-01-13T12:01:03.150Z,97
2019-01-13T12:02:03.202Z,97.5
2019-01-13T12:03:07.232Z,97.3
2019-01-13T12:04:03.603Z,97.7
2019-01-13T12:05:03.315Z,97.7
2019-01-13T12:06:03.510Z,98.2
2019-01-13T12:07:03.124Z,98.2
2019-01-13T12:08:03.748Z,99.1
2019-01-13T12:09:03.534Z,99.4
2019-01-13T12:10:03.766Z,100.1
2019-01-13T12:11:03.513Z,99.8
2019-01-13T12:12:02.736Z,97.7
2019-01-13T12:13:03.151Z,97
2019-01-13T12:14:02.925Z,96.1
2019-01-13T12:15:03.760Z,95.2
2019-01-13T12:16:03.174Z,93.5
2019-01-13T12:17:03.503Z,94.9
2019-01-13T12:18:03.271Z,95.6
2019-01-13T12:19:03.687Z,94.5
2019-01-13T12:20:02.781Z,94.5
2019-01-13T12:21:02.992Z,94.2
2019-01-13T12:22:03.457Z,94.2
2019-01-13T12:23:02.763Z,93.5
2019-01-13T12:24:02.810Z,95.4
2019-01-13T12:25:03.495Z,94.9
2019-01-13T12:26:03.753Z,95.9
2019-01-13T12:27:03.086Z,96.3
2019-01-13T12:28:03.089Z,98.9
2019-01-13T12:29:03.015Z,96.8
2019-01-13T12:30:03.012Z,98
2019-01-13T12:31:03.228Z,98
2019-01-13T12:32:03.551Z,99.1
2019-01-13T12:33:03.268Z,97.7
2019-01-13T12:34:02.488Z,97.5
2019-01-13T12:35:02.836Z,96.8
2019-01-13T12:36:03.654Z,97.3
2019-01-13T12:37:03.521Z,96.6
2019-01-13T12:38:03.489Z,94.7
2019-01-13T12:39:02.897Z,95.4
2019-01-13T12:40:03.553Z,95.2
2019-01-13T12:41:02.903Z,93.8
2019-01-13T12:42:03.545Z,93.1
2019-01-13T12:43:03.647Z,95.4
2019-01-13T12:44:03.292Z,93.1
2019-01-13T12:45:02.847Z,94.9
2019-01-13T12:46:02.780Z,95.4
2019-01-13T12:47:03.436Z,95.2
2019-01-13T12:48:02.904Z,94.9
2019-01-13T12:49:03.659Z,92.1
2019-01-13T12:50:03.236Z,94.5
2019-01-13T12:51:03.655Z,92.8
2019-01-13T12:52:02.591Z,94
2019-01-13T12:53:03.291Z,94.5
2019-01-13T12:54:03.472Z,93.5
2019-01-13T12:55:03.445Z,93.8
2019-01-13T12:56:03.091Z,93.3
2019-01-13T12:57:03.529Z,94.9
2019-01-13T12:58:03.186Z,94.7
2019-01-13T12:59:03.413Z,94.7
2019-01-13T13:00:03.590Z,95.9
2019-01-13T13:01:03.274Z,95.9
2019-01-13T13:02:02.950Z,95.9
2019-01-13T13:03:03.128Z,95.4
2019-01-13T13:04:03.391Z,94.2
2019-01-13T13:05:03.336Z,95.4
2019-01-13T13:06:03.286Z,96.1
2019-01-13T13:07:03.298Z,95.4
2019-01-13T13:08:03.112Z,95.2
2019-01-13T13:09:02.942Z,96.3
2019-01-13T13:10:02.757Z,96.8
2019-01-13T13:11:03.596Z,98.2
2019-01-13T13:12:02.932Z,98.9
2019-01-13T13:13:03.510Z,98.9
2019-01-13T13:14:03.744Z,99.1
2019-01-13T13:15:03.597Z,99.6
2019-01-13T13:16:03.463Z,97.7
2019-01-13T13:17:02.917Z,98.4
2019-01-13T13:18:02.901Z,97.3
2019-01-13T13:19:03.245Z,98.4
2019-01-13T13:20:03.236Z,97
2019-01-13T13:21:02.973Z,98.4
2019-01-13T13:22:03.322Z,97.7
2019-01-13T13:23:04.568Z,98